Time;durP1;ratioP1;P1;durP2;ratioP2;P2;SDS_P1;SDS_P2;PMS_P1;PMS_P2;Temp;Humidity;BMP_temperature;BMP_pressure;BME280_temperature;BME280_humidity;BME280_pressure;Samples;Min_cycle;Max_cycle;Signal;HPM_P1;HPM_P2
2022/04/26 03:37:55;;;;;;;61.38;41.83;;;;;;;9.06;79.03;99378.84;5090878;28;20073;-70
2022/04/26 03:40:20;;;;;;;59.92;38.53;;;;;;;9.07;78.52;99375.28;5090359;28;20032;-72
2022/04/26 03:42:46;;;;;;;57.28;39.92;;;;;;;9.08;79.55;99376.13;5091203;28;20115;-70
2022/04/26 03:45:11;;;;;;;51.35;36.58;;;;;;;9.12;79.48;99372.44;5091313;28;20165;-70
2022/04/26 03:47:36;;;;;;;67.70;44.40;;;;;;;9.09;78.91;99376.06;5091289;28;20043;-69
2022/04/26 03:50:02;;;;;;;61.50;40.75;;;;;;;9.06;79.85;99381.47;5091300;28;20036;-70
2022/04/26 03:52:27;;;;;;;62.00;41.65;;;;;;;9.08;79.67;99376.13;5090533;28;20039;-70
2022/04/26 03:54:53;;;;;;;70.43;45.20;;;;;;;9.12;79.68;99381.16;5091021;28;20142;-70
2022/04/26 03:57:18;;;;;;;74.40;48.83;;;;;;;9.12;79.53;99386.44;5091153;28;20028;-71
2022/04/26 03:59:43;;;;;;;63.72;44.38;;;;;;;9.10;80.00;99382.16;5090363;28;20097;-69
2022/04/26 04:02:09;;;;;;;70.05;47.10;;;;;;;9.09;80.69;99383.97;5089856;28;20040;-69
2022/04/26 04:04:34;;;;;;;68.63;44.30;;;;;;;9.16;79.95;99379.25;5091477;28;20032;-72
2022/04/26 04:07:00;;;;;;;70.38;45.92;;;;;;;9.17;80.47;99381.78;5090501;28;20044;-71
2022/04/26 04:09:25;;;;;;;72.70;45.90;;;;;;;9.18;79.98;99387.88;5091960;28;20058;-70
2022/04/26 04:11:52;;;;;;;76.55;46.00;;;;;;;9.16;80.43;99393.25;5092175;28;20032;-70
2022/04/26 04:14:18;;;;;;;67.45;44.30;;;;;;;9.16;81.03;99388.00;5090985;28;20036;-72
2022/04/26 04:16:43;;;;;;;66.00;44.85;;;;;;;9.20;80.65;99394.78;5090741;28;20036;-70
2022/04/26 04:19:17;;;;;;;61.30;42.38;;;;;;;9.13;80.72;99390.78;5090856;28;20028;-71
2022/04/26 04:21:46;;;;;;;62.78;43.60;;;;;;;9.02;81.56;99398.31;5088482;28;20028;-69
2022/04/26 04:24:12;;;;;;;63.22;41.60;;;;;;;8.99;81.98;99401.13;5090909;28;20035;-69
2022/04/26 04:26:38;;;;;;;73.10;47.70;;;;;;;8.99;81.53;99407.22;5093154;28;20028;-70
2022/04/26 04:29:04;;;;;;;50.47;36.90;;;;;;;9.02;81.69;99400.97;5090854;28;20115;-70
2022/04/26 04:31:30;;;;;;;59.72;41.22;;;;;;;9.03;81.28;99406.16;5087977;28;20039;-70
2022/04/26 04:33:55;;;;;;;61.85;43.58;;;;;;;9.05;81.54;99399.97;5088655;28;20039;-70
2022/04/26 04:36:20;;;;;;;55.33;39.90;;;;;;;9.10;82.13;99411.09;5090091;28;20088;-70
2022/04/26 04:38:46;;;;;;;59.28;42.03;;;;;;;9.07;82.45;99412.09;5089784;28;20089;-70
2022/04/26 04:41:11;;;;;;;62.42;43.63;;;;;;;9.11;83.22;99402.31;5091202;28;20036;-70
2022/04/26 04:43:36;;;;;;;64.32;43.60;;;;;;;9.10;83.42;99405.84;5094648;28;20103;-68
2022/04/26 04:46:02;;;;;;;60.67;38.60;;;;;;;9.13;82.96;99422.34;5093916;28;20044;-70
2022/04/26 04:48:28;;;;;;;45.28;34.15;;;;;;;9.19;82.86;99413.28;5092999;28;20119;-69
2022/04/26 04:50:53;;;;;;;48.45;35.38;;;;;;;9.22;83.03;99427.13;5090725;28;20066;-71
2022/04/26 04:53:20;;;;;;;40.92;29.83;;;;;;;9.22;82.64;99421.00;5089353;28;20032;-71
2022/04/26 04:55:45;;;;;;;41.20;31.42;;;;;;;9.22;82.64;99418.38;5090862;28;20085;-70
2022/04/26 04:58:11;;;;;;;45.63;32.13;;;;;;;9.24;82.74;99420.00;5090341;28;20060;-70
2022/04/26 05:00:36;;;;;;;39.95;28.80;;;;;;;9.16;82.48;99427.44;5089517;28;20032;-70
2022/04/26 05:03:01;;;;;;;41.15;29.48;;;;;;;9.13;82.83;99424.97;5089567;28;20036;-70
2022/04/26 05:05:27;;;;;;;35.53;27.70;;;;;;;9.11;83.15;99424.19;5089179;28;20020;-69
2022/04/26 05:07:52;;;;;;;48.50;33.42;;;;;;;9.11;84.11;99431.22;5089260;28;20116;-69
2022/04/26 05:10:18;;;;;;;42.10;26.80;;;;;;;9.09;85.15;99433.91;5089334;28;20032;-67
2022/04/26 05:12:43;;;;;;;43.72;28.77;;;;;;;9.07;84.49;99432.28;5087641;28;20032;-67
2022/04/26 05:15:09;;;;;;;37.83;27.30;;;;;;;9.07;85.03;99440.19;5090362;28;20058;-66
2022/04/26 05:17:34;;;;;;;46.50;33.17;;;;;;;9.03;84.34;99435.06;5089817;28;20032;-67
2022/04/26 05:20:00;;;;;;;40.28;31.25;;;;;;;9.01;86.08;99439.56;5090029;28;20028;-67
2022/04/26 05:22:26;;;;;;;44.90;33.20;;;;;;;9.05;85.79;99444.66;5088911;28;20048;-67
2022/04/26 05:24:56;;;;;;;51.08;37.50;;;;;;;9.07;85.46;99448.06;5089051;28;20040;-67
2022/04/26 05:27:22;;;;;;;46.22;33.25;;;;;;;9.00;84.49;99443.09;5091965;28;20032;-68
2022/04/26 05:29:48;;;;;;;51.92;31.42;;;;;;;8.97;85.01;99450.28;5091743;28;20035;-68
2022/04/26 05:32:13;;;;;;;43.03;31.33;;;;;;;8.93;84.51;99451.34;5092389;28;20027;-67
2022/04/26 05:34:38;;;;;;;36.05;27.50;;;;;;;8.83;85.03;99456.19;5092148;28;20028;-71
2022/04/26 05:37:04;;;;;;;36.38;28.63;;;;;;;8.79;85.23;99450.25;5088862;28;20028;-68
2022/04/26 05:39:29;;;;;;;37.97;27.77;;;;;;;8.81;86.15;99458.91;5089723;28;20496;-68
2022/04/26 05:41:54;;;;;;;38.28;27.92;;;;;;;8.77;84.85;99459.97;5088745;28;20032;-67
2022/04/26 05:44:20;;;;;;;35.53;27.27;;;;;;;8.76;84.73;99470.53;5088968;28;20349;-68
2022/04/26 05:46:45;;;;;;;33.42;24.23;;;;;;;8.70;84.81;99461.19;5077337;28;20044;-69
2022/04/26 05:49:10;;;;;;;36.85;27.23;;;;;;;8.65;84.69;99465.81;5084202;28;20108;-69
2022/04/26 05:51:36;;;;;;;39.63;29.20;;;;;;;8.57;85.34;99466.16;5083123;28;20036;-67
2022/04/26 05:54:01;;;;;;;35.17;26.25;;;;;;;8.58;84.94;99474.88;5083751;28;20043;-68
2022/04/26 05:56:26;;;;;;;38.95;27.48;;;;;;;8.43;83.83;99467.72;5084326;28;20036;-69
2022/04/26 05:58:52;;;;;;;37.88;26.40;;;;;;;8.32;83.63;99468.19;5086794;28;20036;-68
2022/04/26 06:01:17;;;;;;;43.75;29.17;;;;;;;8.27;85.08;99476.25;5087549;28;20515;-69
2022/04/26 06:03:42;;;;;;;41.03;29.35;;;;;;;8.17;84.07;99482.81;5086521;28;20024;-71
2022/04/26 06:06:08;;;;;;;34.97;25.70;;;;;;;8.15;84.47;99489.94;5086541;28;20036;-69
2022/04/26 06:08:33;;;;;;;37.78;26.52;;;;;;;8.12;85.28;99485.66;5085904;28;20050;-69
2022/04/26 06:10:58;;;;;;;36.45;27.83;;;;;;;8.09;84.73;99491.03;5087696;28;20482;-69
2022/04/26 06:13:24;;;;;;;39.33;28.38;;;;;;;8.09;85.43;99492.81;5088017;28;20081;-68
2022/04/26 06:15:49;;;;;;;39.20;27.30;;;;;;;8.01;83.42;99498.41;5087972;28;20051;-69
2022/04/26 06:18:14;;;;;;;40.15;32.30;;;;;;;7.99;84.23;99494.97;5087968;28;20729;-70
2022/04/26 06:20:39;;;;;;;42.88;28.95;;;;;;;8.01;83.36;99495.78;5088744;28;20695;-68
2022/04/26 06:23:05;;;;;;;40.58;28.80;;;;;;;8.03;83.75;99498.34;5088575;28;20032;-69
2022/04/26 06:25:33;;;;;;;48.13;31.00;;;;;;;8.01;82.72;99502.81;5088761;28;20028;-69
2022/04/26 06:27:58;;;;;;;50.58;31.20;;;;;;;7.98;83.76;99501.16;5087904;28;20101;-70
2022/04/26 06:30:24;;;;;;;53.45;37.03;;;;;;;7.95;83.63;99490.81;5086171;28;20185;-68
2022/04/26 06:32:49;;;;;;;50.08;33.35;;;;;;;7.86;83.20;99493.81;5087666;28;20453;-70
2022/04/26 06:35:14;;;;;;;41.72;29.48;;;;;;;7.89;83.57;99496.31;5088226;28;20043;-70
2022/04/26 06:37:40;;;;;;;47.70;28.98;;;;;;;7.99;84.49;99507.25;5088774;28;20418;-70
2022/04/26 06:40:06;;;;;;;38.70;27.52;;;;;;;8.02;83.66;99500.09;5087945;28;20078;-68
2022/04/26 06:42:31;;;;;;;35.70;24.42;;;;;;;8.06;82.46;99500.84;5087368;28;20038;-70
2022/04/26 06:44:57;;;;;;;50.47;29.75;;;;;;;7.99;81.97;99502.00;5087734;28;20114;-70
2022/04/26 06:47:22;;;;;;;42.85;28.83;;;;;;;8.03;83.53;99499.19;5089418;28;20032;-69
2022/04/26 06:49:47;;;;;;;45.42;29.25;;;;;;;7.99;81.50;99500.22;5090835;28;20131;-70
2022/04/26 06:52:13;;;;;;;43.10;25.85;;;;;;;7.96;83.38;99503.84;5088948;28;20593;-69
2022/04/26 06:54:38;;;;;;;49.35;26.83;;;;;;;8.08;83.47;99509.50;5088243;28;20032;-69
2022/04/26 06:57:03;;;;;;;41.97;26.75;;;;;;;8.03;82.41;99511.47;5089148;28;20385;-71
2022/04/26 06:59:29;;;;;;;35.75;23.15;;;;;;;8.05;82.73;99515.75;5087322;28;20074;-69
2022/04/26 07:01:55;;;;;;;33.80;24.65;;;;;;;8.08;81.62;99517.38;5088018;28;20040;-69
2022/04/26 07:04:21;;;;;;;30.55;23.27;;;;;;;8.01;80.28;99522.03;5088460;28;20028;-71
2022/04/26 07:06:48;;;;;;;33.40;22.80;;;;;;;8.04;81.37;99531.53;5088677;28;20093;-70
2022/04/26 07:09:13;;;;;;;45.55;23.83;;;;;;;8.09;80.21;99526.94;5092042;28;20032;-69
2022/04/26 07:11:39;;;;;;;35.72;22.42;;;;;;;8.10;80.85;99532.13;5096069;28;20032;-67
2022/04/26 07:14:05;;;;;;;38.30;23.45;;;;;;;8.14;80.51;99533.69;5094292;28;20552;-69
2022/04/26 07:16:30;;;;;;;54.15;28.90;;;;;;;8.17;80.81;99540.59;5091686;28;20081;-68
2022/04/26 07:18:56;;;;;;;44.97;25.50;;;;;;;8.11;80.18;99531.22;5091571;28;20028;-69
2022/04/26 07:21:21;;;;;;;45.53;25.25;;;;;;;8.15;79.77;99542.44;5089696;28;20050;-69
2022/04/26 07:23:47;;;;;;;62.72;32.72;;;;;;;8.05;79.85;99551.63;5091225;28;20039;-70
2022/04/26 07:26:13;;;;;;;65.15;37.78;;;;;;;7.93;79.86;99548.59;5091817;28;20111;-70
2022/04/26 07:28:38;;;;;;;58.35;33.78;;;;;;;7.88;80.42;99550.56;5091510;28;20032;-69
2022/04/26 07:31:05;;;;;;;56.58;31.20;;;;;;;7.89;80.38;99551.41;5090983;28;20063;-69
2022/04/26 07:36:14;;;;;;;63.80;33.75;;;;;;;7.86;81.00;99562.91;5091535;28;20043;-68
2022/04/26 07:38:39;;;;;;;53.80;33.33;;;;;;;7.91;81.34;99566.19;5094541;28;20036;-66
2022/04/26 07:41:04;;;;;;;51.42;31.73;;;;;;;7.96;80.97;99566.00;5091677;28;20115;-69
2022/04/26 07:43:30;;;;;;;54.25;33.50;;;;;;;7.98;81.64;99573.81;5091893;28;20090;-69
2022/04/26 07:45:55;;;;;;;57.90;29.42;;;;;;;8.03;81.26;99577.09;5089750;28;20035;-69
2022/04/26 07:48:22;;;;;;;51.10;29.35;;;;;;;8.02;81.47;99568.34;5091323;28;20418;-70
2022/04/26 07:50:48;;;;;;;45.75;27.55;;;;;;;8.12;80.55;99569.69;5090081;28;20054;-68
2022/04/26 07:53:14;;;;;;;54.67;26.67;;;;;;;8.16;81.19;99575.66;5090978;28;20111;-69
2022/04/26 07:55:39;;;;;;;55.08;32.60;;;;;;;8.13;81.44;99573.16;5088045;28;20063;-70
2022/04/26 07:58:05;;;;;;;58.25;33.13;;;;;;;8.14;80.31;99578.34;5089559;28;20043;-68
2022/04/26 08:00:30;;;;;;;64.00;37.17;;;;;;;8.04;80.72;99574.38;5090866;28;20028;-69
2022/04/26 08:02:56;;;;;;;79.35;42.30;;;;;;;7.98;81.01;99582.53;5090189;28;20028;-69
2022/04/26 08:05:22;;;;;;;68.55;37.03;;;;;;;8.00;81.98;99590.34;5089067;28;20093;-69
2022/04/26 08:07:49;;;;;;;60.50;36.88;;;;;;;8.05;81.63;99593.63;5090481;28;20044;-71
2022/04/26 08:10:14;;;;;;;59.60;32.30;;;;;;;8.14;82.07;99587.97;5090614;28;20028;-70
2022/04/26 08:12:41;;;;;;;56.38;34.03;;;;;;;8.22;81.23;99592.91;5091415;28;20036;-67
2022/04/26 08:15:08;;;;;;;50.28;30.73;;;;;;;8.28;80.74;99592.66;5090675;28;20207;-69
2022/04/26 08:17:33;;;;;;;49.47;29.75;;;;;;;8.34;80.03;99605.50;5090249;28;20713;-69
2022/04/26 08:20:02;;;;;;;55.03;30.75;;;;;;;8.39;80.64;99608.78;5090307;28;20040;-68
2022/04/26 08:22:28;;;;;;;49.28;29.55;;;;;;;8.47;80.02;99608.53;5088787;28;20056;-69
2022/04/26 08:27:38;;;;;;;48.97;30.45;;;;;;;8.66;79.95;99619.91;5090318;28;20120;-67
2022/04/26 08:30:04;;;;;;;37.05;24.40;;;;;;;8.70;78.97;99620.66;5089783;28;20039;-70
2022/04/26 08:32:41;;;;;;;36.25;22.13;;;;;;;8.76;78.79;99618.59;5090252;28;20032;-71
2022/04/26 08:35:08;;;;;;;33.40;23.02;;;;;;;8.78;78.18;99631.66;5091952;28;20039;-69
2022/04/26 08:37:35;;;;;;;39.80;24.58;;;;;;;8.80;78.91;99632.44;5092928;28;20675;-68
2022/04/26 08:40:05;;;;;;;36.65;23.00;;;;;;;8.88;78.87;99626.84;5080212;28;20523;-69
2022/04/26 08:42:41;;;;;;;30.90;20.23;;;;;;;8.96;78.50;99633.47;5088479;28;20063;-68
2022/04/26 08:45:09;;;;;;;33.50;23.30;;;;;;;9.00;78.27;99632.41;5088686;28;20383;-69
2022/04/26 08:53:05;;;;;;;35.67;22.05;;;;;;;8.97;78.10;99640.44;5088196;28;20038;-69
2022/04/26 08:55:33;;;;;;;42.13;23.10;;;;;;;8.92;78.97;99647.69;5089702;28;20115;-67
2022/04/26 08:57:59;;;;;;;38.13;23.08;;;;;;;8.93;78.18;99657.25;5089750;28;20032;-70
2022/04/26 09:00:25;;;;;;;33.67;21.15;;;;;;;8.86;78.63;99654.97;5090976;28;20073;-71
2022/04/26 09:03:05;;;;;;;33.28;22.02;;;;;;;8.84;78.58;99649.81;5091324;28;20035;-68
2022/04/26 09:05:31;;;;;;;38.95;22.13;;;;;;;8.85;79.13;99661.16;5090978;28;20200;-68
2022/04/26 09:07:58;;;;;;;29.48;21.67;;;;;;;8.88;78.57;99664.50;5089823;28;20037;-69
2022/04/26 09:10:24;;;;;;;34.65;23.75;;;;;;;8.96;78.87;99659.78;5089220;28;20488;-70
2022/04/26 09:13:10;;;;;;;36.35;22.02;;;;;;;8.99;77.72;99662.25;5087463;28;20028;-70
2022/04/26 09:15:56;;;;;;;27.17;20.52;;;;;;;9.10;78.27;99668.81;5089261;28;20055;-69
2022/04/26 09:18:30;;;;;;;;;;;;;;;9.16;76.78;99666.75;5089511;28;20081;-68
2022/04/26 09:21:08;;;;;;;34.45;23.23;;;;;;;9.20;78.06;99665.69;5088878;28;20318;-69
2022/04/26 09:23:34;;;;;;;30.25;21.98;;;;;;;9.30;77.11;99665.28;5088881;28;20028;-70
2022/04/26 09:26:11;;;;;;;29.63;22.20;;;;;;;9.35;76.42;99671.16;5089515;28;20109;-69
2022/04/26 09:28:40;;;;;;;33.72;21.35;;;;;;;9.26;75.58;99677.72;5089164;28;20107;-69
2022/04/26 09:31:25;;;;;;;32.63;22.17;;;;;;;9.23;76.18;99680.50;5088677;28;20036;-68
2022/04/26 09:34:04;;;;;;;34.85;24.73;;;;;;;9.18;76.30;99678.06;5091652;28;20519;-68
2022/04/26 09:36:35;;;;;;;34.28;22.42;;;;;;;9.21;77.11;99688.44;5092496;28;20036;-68
2022/04/26 09:39:03;;;;;;;29.25;19.90;;;;;;;9.29;76.73;99692.50;5091733;28;20039;-70
2022/04/26 09:41:30;;;;;;;29.90;19.80;;;;;;;9.26;76.82;99690.88;5089559;28;20036;-69
2022/04/26 09:44:04;;;;;;;29.05;21.25;;;;;;;9.23;76.11;99707.66;5089172;28;20042;-69
2022/04/26 09:46:49;;;;;;;32.67;23.08;;;;;;;9.11;76.52;99702.09;5088995;28;20036;-70
2022/04/26 09:49:21;;;;;;;31.10;23.77;;;;;;;9.11;77.77;99708.19;5090368;28;20024;-67
2022/04/26 09:51:47;;;;;;;30.05;20.60;;;;;;;9.21;77.52;99709.50;5092324;28;20031;-70
2022/04/26 09:54:13;;;;;;;33.00;21.45;;;;;;;9.25;76.46;99704.94;5088799;28;20035;-70
2022/04/26 09:56:44;;;;;;;35.15;21.45;;;;;;;9.23;76.74;99712.91;5088998;28;20296;-70
2022/04/26 09:59:13;;;;;;;32.22;22.50;;;;;;;9.21;77.50;99711.28;5088867;28;22124;-69
2022/04/26 10:01:45;;;;;;;33.58;23.20;;;;;;;9.13;77.85;99724.78;5086944;28;20105;-69
2022/04/26 10:04:16;;;;;;;32.33;21.55;;;;;;;9.16;77.32;99726.41;5088765;28;20051;-70
2022/04/26 10:06:43;;;;;;;29.02;22.20;;;;;;;9.20;77.32;99727.97;5088994;28;20032;-70
2022/04/26 10:09:09;;;;;;;31.80;24.02;;;;;;;9.20;76.74;99727.97;5088772;28;20051;-70
2022/04/26 10:11:36;;;;;;;31.67;23.10;;;;;;;9.27;76.40;99731.19;5088148;28;20031;-70
2022/04/26 10:14:04;;;;;;;29.92;23.13;;;;;;;9.26;75.24;99726.84;5088496;28;20149;-69
2022/04/26 10:16:30;;;;;;;33.22;21.23;;;;;;;9.21;76.41;99735.78;5087625;28;20051;-69
2022/04/26 10:19:09;;;;;;;32.20;22.73;;;;;;;9.29;76.16;99721.44;5087813;28;20403;-69
2022/04/26 10:21:41;;;;;;;27.42;20.08;;;;;;;9.38;75.62;99728.94;5087839;28;20024;-69
2022/04/26 10:24:24;;;;;;;28.60;21.92;;;;;;;9.47;76.05;99731.13;5088326;28;20666;-70
2022/04/26 10:26:52;;;;;;;39.28;27.33;;;;;;;9.41;76.09;99721.75;5088656;28;20054;-69
2022/04/26 10:29:20;;;;;;;35.78;25.75;;;;;;;9.49;75.56;99725.81;5088550;28;20039;-69
2022/04/26 10:31:47;;;;;;;40.00;30.23;;;;;;;9.50;76.27;99727.50;5088692;28;20036;-69
2022/04/26 10:34:34;;;;;;;36.35;29.13;;;;;;;9.54;75.40;99726.44;5088443;28;20024;-69
2022/04/26 10:37:05;;;;;;;31.20;25.05;;;;;;;9.58;75.74;99738.56;5088048;28;20411;-69
2022/04/26 10:39:39;;;;;;;30.58;24.48;;;;;;;9.60;75.15;99736.72;5087974;28;20046;-69
2022/04/26 10:42:20;;;;;;;36.55;27.30;;;;;;;9.37;74.73;99737.72;5073090;28;20031;-70
2022/04/26 10:44:49;;;;;;;33.53;24.48;;;;;;;9.33;75.53;99750.19;5086836;28;20070;-68
2022/04/26 10:47:20;;;;;;;32.63;24.65;;;;;;;9.36;75.14;99746.56;5092026;28;20032;-69
2022/04/26 10:49:47;;;;;;;33.33;25.73;;;;;;;9.43;75.00;99750.63;5090105;28;20503;-68
2022/04/26 10:52:17;;;;;;;27.83;22.13;;;;;;;9.49;75.88;99760.88;5092388;28;20039;-69
2022/04/26 10:54:46;;;;;;;27.00;23.20;;;;;;;9.58;74.57;99762.25;5092305;28;20113;-68
2022/04/26 10:57:14;;;;;;;25.67;21.48;;;;;;;9.65;74.94;99764.50;5092080;28;20043;-68
2022/04/26 10:59:41;;;;;;;28.45;23.08;;;;;;;9.50;74.11;99761.72;5095742;28;20099;-68
2022/04/26 11:02:12;;;;;;;31.80;23.50;;;;;;;9.48;75.27;99767.06;5091335;28;20047;-69
2022/04/26 11:04:37;;;;;;;33.13;24.15;;;;;;;9.45;74.37;99772.44;5092088;28;20612;-67
2022/04/26 11:07:15;;;;;;;33.67;24.05;;;;;;;9.55;74.68;99770.25;5093284;28;20127;-68
2022/04/26 11:09:49;;;;;;;28.40;21.45;;;;;;;9.66;74.85;99770.63;5091653;28;20073;-68
2022/04/26 11:12:17;;;;;;;29.00;21.55;;;;;;;9.66;74.91;99768.84;5091420;28;20439;-68
2022/04/26 11:14:44;;;;;;;25.63;22.08;;;;;;;9.72;75.04;99773.00;5091626;28;20028;-68
2022/04/26 11:17:10;;;;;;;29.90;26.00;;;;;;;9.80;74.48;99772.63;5091527;28;20067;-68
2022/04/26 11:19:38;;;;;;;40.88;26.63;;;;;;;9.84;75.13;99782.94;5091580;28;20062;-68
2022/04/26 11:22:04;;;;;;;36.90;24.92;;;;;;;9.88;74.14;99781.88;5093268;28;20036;-68
2022/04/26 11:29:58;;;;;;;28.88;21.70;;;;;;;9.96;73.13;99786.78;5092228;28;20059;-69
2022/04/26 11:32:30;;;;;;;29.70;22.67;;;;;;;10.03;72.99;99793.47;5091853;28;20044;-68
2022/04/26 11:34:56;;;;;;;29.80;19.85;;;;;;;10.09;72.83;99793.19;5098512;28;20062;-69
2022/04/26 11:37:22;;;;;;;25.20;21.10;;;;;;;10.15;72.47;99797.31;5091562;28;20040;-70
2022/04/26 11:39:48;;;;;;;26.10;21.40;;;;;;;10.17;72.34;99802.53;5104959;28;20034;-69
2022/04/26 11:42:13;;;;;;;26.05;20.42;;;;;;;10.28;71.77;99800.25;5096616;28;20036;-68
2022/04/26 11:44:58;;;;;;;39.53;23.58;;;;;;;10.32;71.62;99797.41;5094557;28;20488;-69
2022/04/26 11:47:43;;;;;;;26.83;23.23;;;;;;;10.44;70.94;99798.59;5093815;28;20032;-69
2022/04/26 11:50:28;;;;;;;24.67;22.02;;;;;;;10.48;70.37;99800.16;5091757;28;20118;-69
2022/04/26 11:53:08;;;;;;;27.00;22.02;;;;;;;10.65;70.64;99806.38;5091347;28;20038;-67
2022/04/26 11:55:36;;;;;;;26.10;20.58;;;;;;;10.76;70.73;99809.34;5090729;28;20062;-68
2022/04/26 11:58:21;;;;;;;28.90;22.63;;;;;;;10.89;69.22;99818.34;5081308;28;20044;-69
2022/04/26 12:00:51;;;;;;;39.38;21.10;;;;;;;11.07;69.53;99811.28;5090301;28;20047;-67
2022/04/26 12:03:18;;;;;;;23.55;17.92;;;;;;;11.28;68.93;99817.25;5080926;28;20028;-69
2022/04/26 12:05:44;;;;;;;23.23;17.35;;;;;;;11.43;67.40;99820.03;5091198;28;20039;-69
2022/04/26 12:08:12;;;;;;;24.02;19.27;;;;;;;11.50;67.00;99816.13;5091150;28;20040;-69
2022/04/26 12:10:37;;;;;;;22.55;18.63;;;;;;;11.59;66.73;99819.16;5093409;28;20119;-69
2022/04/26 12:13:05;;;;;;;21.88;17.23;;;;;;;11.59;66.45;99819.16;5091010;28;20036;-69
2022/04/26 12:15:35;;;;;;;27.23;18.88;;;;;;;11.58;66.27;99812.16;5091110;28;20031;-69
2022/04/26 12:18:13;;;;;;;23.65;17.50;;;;;;;11.63;66.67;99811.06;5090495;28;20035;-70
2022/04/26 12:20:56;;;;;;;25.30;17.88;;;;;;;11.75;66.10;99808.59;5069698;28;20028;-69
2022/04/26 12:23:22;;;;;;;22.98;18.33;;;;;;;11.47;65.65;99811.88;5070924;28;20043;-69
2022/04/26 12:26:01;;;;;;;27.67;21.20;;;;;;;11.41;66.23;99803.41;5070879;28;20025;-69
2022/04/26 12:28:27;;;;;;;20.83;18.63;;;;;;;11.33;66.40;99811.75;5071372;28;20380;-67
2022/04/26 12:30:54;;;;;;;25.65;20.95;;;;;;;11.27;66.73;99815.56;5071118;28;20028;-69
2022/04/26 12:33:31;;;;;;;19.55;17.45;;;;;;;11.34;66.95;99816.91;5070990;28;20119;-67
2022/04/26 12:36:05;;;;;;;21.48;16.58;;;;;;;11.51;66.67;99815.19;5071259;28;20028;-68
2022/04/26 12:38:43;;;;;;;27.58;22.25;;;;;;;11.50;66.05;99809.06;5071994;28;20036;-68
2022/04/26 12:41:09;;;;;;;27.92;20.95;;;;;;;11.45;66.06;99811.09;5071707;28;20036;-69
2022/04/26 12:43:34;;;;;;;25.83;18.33;;;;;;;11.57;66.16;99801.69;5071129;28;20032;-69
2022/04/26 12:46:08;;;;;;;26.63;18.42;;;;;;;11.80;65.29;99801.28;5069273;28;20032;-68
2022/04/26 12:51:24;;;;;;;26.95;17.70;;;;;;;12.25;63.39;99798.88;5071139;28;20099;-67
2022/04/26 12:53:54;;;;;;;21.92;18.80;;;;;;;12.65;63.65;99797.47;5071779;28;20024;-68
2022/04/26 12:56:20;;;;;;;26.30;19.75;;;;;;;12.97;61.76;99799.16;5071134;28;20404;-67
2022/04/26 12:58:48;;;;;;;19.63;17.52;;;;;;;13.12;61.20;99793.00;5073784;28;20036;-66
2022/04/26 13:01:14;;;;;;;21.50;18.48;;;;;;;13.30;60.29;99793.69;5072715;28;20664;-68
2022/04/26 13:03:41;;;;;;;22.77;20.38;;;;;;;13.43;59.36;99794.66;5072415;28;20795;-69
2022/04/26 13:06:18;;;;;;;23.00;17.92;;;;;;;13.56;59.14;99791.25;5070990;28;20042;-70
2022/04/26 13:08:48;;;;;;;23.92;17.95;;;;;;;13.60;59.42;99787.47;5070504;28;20115;-68
2022/04/26 13:11:20;;;;;;;20.63;18.42;;;;;;;13.63;58.73;99774.88;5069187;28;20033;-69
2022/04/26 13:13:48;;;;;;;17.08;15.18;;;;;;;13.70;58.69;99776.22;5069879;28;20029;-66
2022/04/26 13:16:13;;;;;;;18.00;15.23;;;;;;;13.68;58.62;99777.25;5071729;28;20041;-69
2022/04/26 13:18:40;;;;;;;20.70;16.67;;;;;;;13.62;59.17;99773.19;5069149;28;20025;-69
2022/04/26 13:21:05;;;;;;;18.70;15.93;;;;;;;13.61;59.18;99768.84;5068902;28;20120;-67
2022/04/26 13:23:33;;;;;;;19.67;16.38;;;;;;;13.65;58.61;99780.09;5069068;28;20123;-69
2022/04/26 13:26:00;;;;;;;28.35;17.48;;;;;;;13.64;59.34;99781.06;5069004;28;20037;-70
2022/04/26 13:28:26;;;;;;;18.65;16.63;;;;;;;13.63;59.13;99774.88;5084905;28;20039;-71
2022/04/26 13:30:51;;;;;;;18.83;15.85;;;;;;;13.64;59.58;99778.41;5089422;28;20438;-70
2022/04/26 13:33:17;;;;;;;15.50;13.82;;;;;;;13.58;59.00;99768.19;5088613;28;20032;-69
2022/04/26 13:35:43;;;;;;;20.48;15.13;;;;;;;13.67;57.81;99764.97;5089554;28;20153;-69
2022/04/26 13:38:12;;;;;;;16.30;14.43;;;;;;;13.79;57.71;99766.00;5090082;28;20123;-69
2022/04/26 13:40:39;;;;;;;21.25;12.60;;;;;;;13.80;57.82;99765.88;5064575;28;20040;-68
2022/04/26 13:43:06;;;;;;;14.13;11.27;;;;;;;13.83;56.41;99771.00;5088687;28;20697;-72
2022/04/26 13:45:32;;;;;;;14.13;12.27;;;;;;;13.74;56.53;99774.22;5084278;28;20036;-68
2022/04/26 13:47:59;;;;;;;17.67;12.45;;;;;;;13.71;56.62;99772.63;5088324;28;20091;-68
2022/04/26 13:50:25;;;;;;;14.45;11.45;;;;;;;13.57;56.73;99771.78;5068016;28;20071;-71
2022/04/26 13:52:50;;;;;;;14.20;12.07;;;;;;;13.39;57.80;99777.28;5081195;28;20714;-70
2022/04/26 13:55:18;;;;;;;15.70;11.68;;;;;;;13.29;58.17;99766.38;5083616;28;20144;-70
2022/04/26 13:57:46;;;;;;;14.48;11.82;;;;;;;13.46;57.84;99769.78;5082673;28;20039;-71
2022/04/26 14:00:15;;;;;;;17.23;11.60;;;;;;;13.45;57.47;99774.22;5082830;28;20032;-71
2022/04/26 14:02:41;;;;;;;16.15;11.32;;;;;;;13.58;58.15;99762.88;5082644;28;20043;-68
2022/04/26 14:05:07;;;;;;;27.25;17.15;;;;;;;13.79;57.36;99766.84;5078105;28;20484;-71
2022/04/26 14:07:32;;;;;;;16.83;12.20;;;;;;;13.93;57.67;99760.66;5082378;28;20089;-69
2022/04/26 14:09:58;;;;;;;14.80;10.98;;;;;;;14.12;56.54;99761.19;5082230;28;20035;-72
2022/04/26 14:12:23;;;;;;;13.40;10.95;;;;;;;14.35;56.06;99759.72;5082758;28;20039;-70
2022/04/26 14:23:00;;;;;;;18.50;11.13;;;;;;;14.26;54.09;99762.97;5081833;28;20083;-69
2022/04/26 14:25:26;;;;;;;17.77;11.02;;;;;;;14.10;54.23;99759.59;5081087;28;20076;-69
2022/04/26 14:27:51;;;;;;;13.23;11.00;;;;;;;13.80;53.99;99763.22;5083053;28;20040;-69
2022/04/26 14:30:17;;;;;;;15.00;10.55;;;;;;;13.73;54.41;99761.91;5082735;28;20028;-70
2022/04/26 14:32:44;;;;;;;13.23;10.25;;;;;;;13.66;55.01;99768.53;5082938;28;20043;-69
2022/04/26 14:35:10;;;;;;;17.77;11.15;;;;;;;13.72;54.52;99774.31;5082666;28;20036;-70
2022/04/26 14:37:36;;;;;;;12.07;9.70;;;;;;;13.86;53.54;99768.16;5082321;28;20036;-71
2022/04/26 14:40:03;;;;;;;14.00;10.40;;;;;;;14.04;52.22;99771.44;5082142;28;20096;-71
2022/04/26 14:42:29;;;;;;;14.10;10.25;;;;;;;14.20;51.06;99754.53;5082491;28;20047;-71
2022/04/26 14:44:55;;;;;;;11.60;9.55;;;;;;;14.35;50.48;99758.88;5080689;28;20028;-69
2022/04/26 14:47:20;;;;;;;14.85;10.55;;;;;;;14.43;49.61;99767.16;5082291;28;20040;-70
2022/04/26 14:49:46;;;;;;;13.05;10.00;;;;;;;14.58;50.50;99763.53;5082033;28;20119;-69
2022/04/26 14:52:18;;;;;;;15.95;9.85;;;;;;;14.56;48.95;99760.13;5080086;28;20495;-69
2022/04/26 14:54:43;;;;;;;9.55;8.55;;;;;;;14.49;50.00;99763.25;5082677;28;20450;-70
2022/04/26 14:57:08;;;;;;;13.23;9.70;;;;;;;14.44;50.96;99765.34;5082141;28;20076;-72
2022/04/26 14:59:39;;;;;;;13.70;9.52;;;;;;;14.42;51.05;99761.94;5081994;28;20062;-69
2022/04/26 15:02:04;;;;;;;13.68;10.10;;;;;;;14.35;51.00;99762.38;5079951;28;20487;-72
2022/04/26 15:04:30;;;;;;;19.42;10.32;;;;;;;14.21;51.58;99767.72;5082221;28;20081;-70
2022/04/26 15:06:55;;;;;;;16.52;10.88;;;;;;;14.21;51.87;99764.22;5081932;28;20093;-71
2022/04/26 15:17:33;;;;;;;9.93;7.97;;;;;;;15.00;50.19;99753.63;5082440;28;20096;-70
2022/04/26 15:20:00;;;;;;;15.68;9.52;;;;;;;15.24;48.86;99743.13;5081696;28;20032;-71
2022/04/26 15:22:26;;;;;;;14.10;9.18;;;;;;;15.45;48.59;99742.59;5082394;28;20414;-70
2022/04/26 15:24:54;;;;;;;15.57;8.70;;;;;;;15.54;47.90;99747.25;5081323;28;20036;-71
2022/04/26 15:27:20;;;;;;;13.65;8.60;;;;;;;15.42;47.72;99748.13;5082006;28;20044;-70
2022/04/26 15:29:46;;;;;;;16.13;9.13;;;;;;;15.07;47.87;99758.53;5080075;28;20043;-70
2022/04/26 15:32:12;;;;;;;12.88;10.65;;;;;;;14.81;47.88;99761.13;5084052;28;20518;-71
2022/04/26 15:34:38;;;;;;;10.60;7.85;;;;;;;14.68;48.83;99763.78;5085419;28;20036;-70
2022/04/26 15:37:04;;;;;;;12.68;8.27;;;;;;;14.58;47.87;99763.53;5085662;28;20054;-69
2022/04/26 15:39:30;;;;;;;13.07;9.43;;;;;;;14.43;48.21;99769.81;5085502;28;20060;-69